sensor_id;sensor_type;location;lat;lon;timestamp;pressure;altitude;pressure_sealevel;temperature;humidity
7337;BME280;54510;42.016;23.098;2022-09-27T00:00:21;-21890.00;;;27.71;50.71
7337;BME280;54510;42.016;23.098;2022-09-27T00:02:47;-21890.28;;;27.72;50.86
7337;BME280;54510;42.016;23.098;2022-09-27T00:05:14;-21884.31;;;27.50;50.93
7337;BME280;54510;42.016;23.098;2022-09-27T00:07:39;-21881.47;;;27.39;51.15
7337;BME280;54510;42.016;23.098;2022-09-27T00:10:05;-21877.13;;;27.23;51.16
7337;BME280;54510;42.016;23.098;2022-09-27T00:12:31;-21880.25;;;27.35;51.13
7337;BME280;54510;42.016;23.098;2022-09-27T00:14:56;-21870.06;;;26.97;52.11
7337;BME280;54510;42.016;23.098;2022-09-27T00:17:22;-21862.06;;;26.67;52.75
7337;BME280;54510;42.016;23.098;2022-09-27T00:19:47;-21871.28;;;27.01;52.46
7337;BME280;54510;42.016;23.098;2022-09-27T00:22:13;-21879.84;;;27.33;51.23
7337;BME280;54510;42.016;23.098;2022-09-27T00:24:38;-21884.84;;;27.52;50.68
7337;BME280;54510;42.016;23.098;2022-09-27T00:27:03;-21877.13;;;27.23;51.39
7337;BME280;54510;42.016;23.098;2022-09-27T00:29:29;-21882.13;;;27.42;51.02
7337;BME280;54510;42.016;23.098;2022-09-27T00:31:55;-21870.75;;;26.99;51.59
7337;BME280;54510;42.016;23.098;2022-09-27T00:34:23;-21860.81;;;26.62;52.39
7337;BME280;54510;42.016;23.098;2022-09-27T00:36:50;-21860.97;;;26.63;52.20
7337;BME280;54510;42.016;23.098;2022-09-27T00:39:16;-21874.41;;;27.13;51.33
7337;BME280;54510;42.016;23.098;2022-09-27T00:41:42;-21869.13;;;26.93;51.68
7337;BME280;54510;42.016;23.098;2022-09-27T00:49:30;-21868.97;;;26.93;50.91
7337;BME280;54510;42.016;23.098;2022-09-27T00:52:02;-21875.91;;;27.19;50.86
7337;BME280;54510;42.016;23.098;2022-09-27T00:54:29;-21870.75;;;26.99;50.38
7337;BME280;54510;42.016;23.098;2022-09-27T00:56:55;-21859.75;;;26.58;51.50
7337;BME280;54510;42.016;23.098;2022-09-27T00:59:32;-21869.13;;;26.93;50.72
7337;BME280;54510;42.016;23.098;2022-09-27T01:01:58;-21877.13;;;27.23;50.36
7337;BME280;54510;42.016;23.098;2022-09-27T01:04:27;-21881.59;;;27.40;50.30
7337;BME280;54510;42.016;23.098;2022-09-27T01:06:54;-21887.31;;;27.61;49.36
7337;BME280;54510;42.016;23.098;2022-09-27T01:09:21;-21886.22;;;27.57;49.18
7337;BME280;54510;42.016;23.098;2022-09-27T01:31:50;-21875.91;;;27.19;50.90
7337;BME280;54510;42.016;23.098;2022-09-27T01:34:30;-21872.66;;;27.06;51.22
7337;BME280;54510;42.016;23.098;2022-09-27T01:37:08;-21879.44;;;27.32;50.51
7337;BME280;54510;42.016;23.098;2022-09-27T01:42:49;-21886.75;;;27.59;50.33
7337;BME280;54510;42.016;23.098;2022-09-27T01:45:28;-21882.53;;;27.43;51.00
7337;BME280;54510;42.016;23.098;2022-09-27T01:48:00;-21876.59;;;27.21;50.50
7337;BME280;54510;42.016;23.098;2022-09-27T01:50:36;-21867.06;;;26.86;52.21
7337;BME280;54510;42.016;23.098;2022-09-27T01:53:27;-21870.75;;;26.99;51.57
7337;BME280;54510;42.016;23.098;2022-09-27T01:55:56;-21877.66;;;27.25;51.18
7337;BME280;54510;42.016;23.098;2022-09-27T01:58:31;-21873.19;;;27.08;50.75
7337;BME280;54510;42.016;23.098;2022-09-27T02:00:59;-21867.75;;;26.88;52.61
7337;BME280;54510;42.016;23.098;2022-09-27T02:03:42;-21873.72;;;27.10;51.88
7337;BME280;54510;42.016;23.098;2022-09-27T02:06:21;-21874.28;;;27.12;51.28
7337;BME280;54510;42.016;23.098;2022-09-27T02:08:57;-21878.34;;;27.28;51.14
7337;BME280;54510;42.016;23.098;2022-09-27T02:11:25;-21879.97;;;27.34;50.99
7337;BME280;54510;42.016;23.098;2022-09-27T02:16:50;-21874.00;;;27.11;52.52
7337;BME280;54510;42.016;23.098;2022-09-27T02:22:31;-21863.69;;;26.73;52.92
7337;BME280;54510;42.016;23.098;2022-09-27T02:30:19;-21861.78;;;26.66;52.81
7337;BME280;54510;42.016;23.098;2022-09-27T02:32:44;-21857.56;;;26.50;54.15
7337;BME280;54510;42.016;23.098;2022-09-27T02:35:17;-21864.75;;;26.77;53.27
7337;BME280;54510;42.016;23.098;2022-09-27T02:37:44;-21873.88;;;27.11;52.98
7337;BME280;54510;42.016;23.098;2022-09-27T02:40:09;-21874.81;;;27.15;52.44
7337;BME280;54510;42.016;23.098;2022-09-27T02:42:36;-21858.78;;;26.55;53.71
7337;BME280;54510;42.016;23.098;2022-09-27T02:45:03;-21871.56;;;27.02;52.24
7337;BME280;54510;42.016;23.098;2022-09-27T03:01:11;-21872.91;;;27.07;52.42
7337;BME280;54510;42.016;23.098;2022-09-27T03:03:51;-21877.25;;;27.24;52.20
7337;BME280;54510;42.016;23.098;2022-09-27T03:06:19;-21866.00;;;26.82;51.99
7337;BME280;54510;42.016;23.098;2022-09-27T03:08:45;-21859.88;;;26.59;53.55
7337;BME280;54510;42.016;23.098;2022-09-27T03:11:11;-21870.59;;;26.99;52.74
7337;BME280;54510;42.016;23.098;2022-09-27T03:13:37;-21879.16;;;27.31;51.89
7337;BME280;54510;42.016;23.098;2022-09-27T03:16:06;-21872.50;;;27.06;52.58
7337;BME280;54510;42.016;23.098;2022-09-27T03:18:32;-21868.56;;;26.91;53.29
7337;BME280;54510;42.016;23.098;2022-09-27T03:20:58;-21865.84;;;26.81;52.55
7337;BME280;54510;42.016;23.098;2022-09-27T03:23:24;-21868.72;;;26.92;52.71
7337;BME280;54510;42.016;23.098;2022-09-27T03:25:50;-21879.97;;;27.34;51.88
7337;BME280;54510;42.016;23.098;2022-09-27T03:28:16;-21883.09;;;27.45;51.75
7337;BME280;54510;42.016;23.098;2022-09-27T03:30:44;-21875.09;;;27.16;52.07
7337;BME280;54510;42.016;23.098;2022-09-27T03:33:10;-21883.63;;;27.47;50.70
7337;BME280;54510;42.016;23.098;2022-09-27T03:35:35;-21883.78;;;27.48;51.13
7337;BME280;54510;42.016;23.098;2022-09-27T03:38:01;-21885.53;;;27.55;51.25
7337;BME280;54510;42.016;23.098;2022-09-27T03:40:27;-21882.81;;;27.44;51.19
7337;BME280;54510;42.016;23.098;2022-09-27T03:42:52;-21887.03;;;27.60;51.32
7337;BME280;54510;42.016;23.098;2022-09-27T03:45:19;-21867.63;;;26.88;52.49
7337;BME280;54510;42.016;23.098;2022-09-27T03:47:45;-21880.91;;;27.37;52.11
7337;BME280;54510;42.016;23.098;2022-09-27T03:50:11;-21884.84;;;27.52;51.85
7337;BME280;54510;42.016;23.098;2022-09-27T03:52:37;-21868.44;;;26.91;53.08
7337;BME280;54510;42.016;23.098;2022-09-27T03:55:03;-21889.88;;;27.71;52.26
7337;BME280;54510;42.016;23.098;2022-09-27T03:57:28;-21895.28;;;27.91;51.10
7337;BME280;54510;42.016;23.098;2022-09-27T03:59:55;-21890.81;;;27.74;52.06
7337;BME280;54510;42.016;23.098;2022-09-27T04:02:20;-21882.13;;;27.42;52.85
7337;BME280;54510;42.016;23.098;2022-09-27T04:04:46;-21886.47;;;27.58;52.49
7337;BME280;54510;42.016;23.098;2022-09-27T04:07:12;-21889.88;;;27.71;51.91
7337;BME280;54510;42.016;23.098;2022-09-27T04:09:37;-21883.50;;;27.47;52.47
7337;BME280;54510;42.016;23.098;2022-09-27T04:12:03;-21879.69;;;27.33;53.10
7337;BME280;54510;42.016;23.098;2022-09-27T04:14:29;-21883.09;;;27.45;53.18
7337;BME280;54510;42.016;23.098;2022-09-27T04:16:54;-21878.06;;;27.27;53.09
7337;BME280;54510;42.016;23.098;2022-09-27T04:19:20;-21844.78;;;26.03;54.14
7337;BME280;54510;42.016;23.098;2022-09-27T04:21:46;-21860.41;;;26.61;54.90
7337;BME280;54510;42.016;23.098;2022-09-27T04:24:11;-21875.50;;;27.17;52.62
7337;BME280;54510;42.016;23.098;2022-09-27T04:26:38;-21882.28;;;27.42;51.67
7337;BME280;54510;42.016;23.098;2022-09-27T04:29:06;-21875.22;;;27.16;51.97
7337;BME280;54510;42.016;23.098;2022-09-27T04:31:34;-21878.47;;;27.28;51.19
7337;BME280;54510;42.016;23.098;2022-09-27T04:34:00;-21883.09;;;27.45;49.33
7337;BME280;54510;42.016;23.098;2022-09-27T04:36:26;-21889.75;;;27.70;47.29
7337;BME280;54510;42.016;23.098;2022-09-27T04:38:53;-21890.16;;;27.72;46.86
7337;BME280;54510;42.016;23.098;2022-09-27T04:41:19;-21879.69;;;27.33;46.99
7337;BME280;54510;42.016;23.098;2022-09-27T04:43:51;-21891.09;;;27.75;46.33
7337;BME280;54510;42.016;23.098;2022-09-27T04:46:17;-21887.97;;;27.64;46.62
7337;BME280;54510;42.016;23.098;2022-09-27T04:48:43;-21887.16;;;27.61;45.94
7337;BME280;54510;42.016;23.098;2022-09-27T04:51:09;-21878.63;;;27.29;46.61
7337;BME280;54510;42.016;23.098;2022-09-27T04:53:35;-21863.13;;;26.71;47.32
7337;BME280;54510;42.016;23.098;2022-09-27T04:56:00;-21857.69;;;26.51;48.39
7337;BME280;54510;42.016;23.098;2022-09-27T04:58:30;-21869.53;;;26.95;47.46
7337;BME280;54510;42.016;23.098;2022-09-27T05:00:57;-21880.38;;;27.35;47.08
7337;BME280;54510;42.016;23.098;2022-09-27T05:03:23;-21881.59;;;27.40;46.54
7337;BME280;54510;42.016;23.098;2022-09-27T05:05:49;-21878.75;;;27.29;46.72
7337;BME280;54510;42.016;23.098;2022-09-27T05:08:14;-21889.19;;;27.68;46.13
7337;BME280;54510;42.016;23.098;2022-09-27T05:10:40;-21881.31;;;27.39;46.58
7337;BME280;54510;42.016;23.098;2022-09-27T05:13:05;-21872.38;;;27.05;47.33
7337;BME280;54510;42.016;23.098;2022-09-27T05:15:31;-21883.34;;;27.46;46.58
7337;BME280;54510;42.016;23.098;2022-09-27T05:17:57;-21882.81;;;27.44;46.58
7337;BME280;54510;42.016;23.098;2022-09-27T05:20:23;-21884.31;;;27.50;45.90
7337;BME280;54510;42.016;23.098;2022-09-27T05:22:50;-21880.38;;;27.35;46.47
7337;BME280;54510;42.016;23.098;2022-09-27T05:25:16;-21882.69;;;27.44;47.03
7337;BME280;54510;42.016;23.098;2022-09-27T05:27:42;-21890.28;;;27.72;46.01
7337;BME280;54510;42.016;23.098;2022-09-27T05:30:08;-21896.38;;;27.95;45.99
7337;BME280;54510;42.016;23.098;2022-09-27T05:32:34;-21892.31;;;27.80;46.71
7337;BME280;54510;42.016;23.098;2022-09-27T05:34:59;-21900.84;;;28.12;46.68
7337;BME280;54510;42.016;23.098;2022-09-27T05:37:25;-21899.38;;;28.06;47.21
7337;BME280;54510;42.016;23.098;2022-09-27T05:39:50;-21896.78;;;27.97;47.90
7337;BME280;54510;42.016;23.098;2022-09-27T05:42:16;-21898.94;;;28.05;47.63
7337;BME280;54510;42.016;23.098;2022-09-27T05:44:43;-21885.53;;;27.55;48.76
7337;BME280;54510;42.016;23.098;2022-09-27T05:47:12;-21890.16;;;27.72;48.73
7337;BME280;54510;42.016;23.098;2022-09-27T05:49:37;-21871.81;;;27.03;51.02
7337;BME280;54510;42.016;23.098;2022-09-27T05:52:05;-21882.00;;;27.41;48.13
7337;BME280;54510;42.016;23.098;2022-09-27T05:54:30;-21887.84;;;27.63;48.22
7337;BME280;54510;42.016;23.098;2022-09-27T05:56:56;-21886.88;;;27.60;48.09
7337;BME280;54510;42.016;23.098;2022-09-27T05:59:26;-21879.28;;;27.31;49.30
7337;BME280;54510;42.016;23.098;2022-09-27T06:01:52;-21887.56;;;27.62;47.51
7337;BME280;54510;42.016;23.098;2022-09-27T06:04:18;-21892.19;;;27.79;46.76
7337;BME280;54510;42.016;23.098;2022-09-27T06:06:44;-21895.16;;;27.90;47.18
7337;BME280;54510;42.016;23.098;2022-09-27T06:09:10;-21890.00;;;27.71;47.92
7337;BME280;54510;42.016;23.098;2022-09-27T06:11:36;-21890.56;;;27.73;47.76
7337;BME280;54510;42.016;23.098;2022-09-27T06:14:02;-21897.19;;;27.98;47.06
7337;BME280;54510;42.016;23.098;2022-09-27T06:16:28;-21889.47;;;27.69;48.00
7337;BME280;54510;42.016;23.098;2022-09-27T06:18:54;-21894.06;;;27.86;48.60
7337;BME280;54510;42.016;23.098;2022-09-27T06:21:19;-21890.81;;;27.74;49.04
7337;BME280;54510;42.016;23.098;2022-09-27T06:23:45;-21893.53;;;27.84;48.92
7337;BME280;54510;42.016;23.098;2022-09-27T06:26:11;-21890.28;;;27.72;49.56
7337;BME280;54510;42.016;23.098;2022-09-27T06:28:37;-21885.25;;;27.54;50.98
7337;BME280;54510;42.016;23.098;2022-09-27T06:31:05;-21880.25;;;27.35;51.54
7337;BME280;54510;42.016;23.098;2022-09-27T06:33:32;-21880.78;;;27.37;50.79
7337;BME280;54510;42.016;23.098;2022-09-27T06:36:00;-21881.31;;;27.39;51.39
7337;BME280;54510;42.016;23.098;2022-09-27T06:38:26;-21884.31;;;27.50;50.08
7337;BME280;54510;42.016;23.098;2022-09-27T06:40:52;-21885.81;;;27.56;51.87
7337;BME280;54510;42.016;23.098;2022-09-27T06:43:19;-21879.44;;;27.32;51.33
7337;BME280;54510;42.016;23.098;2022-09-27T06:45:45;-21873.19;;;27.08;51.54
7337;BME280;54510;42.016;23.098;2022-09-27T06:48:12;-21865.44;;;26.80;53.03
7337;BME280;54510;42.016;23.098;2022-09-27T06:50:39;-21865.84;;;26.81;52.86
7337;BME280;54510;42.016;23.098;2022-09-27T06:53:07;-21884.19;;;27.49;52.02
7337;BME280;54510;42.016;23.098;2022-09-27T06:55:33;-21891.63;;;27.77;51.20
7337;BME280;54510;42.016;23.098;2022-09-27T06:58:00;-21871.97;;;27.04;51.50
7337;BME280;54510;42.016;23.098;2022-09-27T07:00:44;-21878.75;;;27.29;51.54
7337;BME280;54510;42.016;23.098;2022-09-27T07:03:13;-21868.28;;;26.90;52.77
7337;BME280;54510;42.016;23.098;2022-09-27T07:05:40;-21885.66;;;27.55;50.62
7337;BME280;54510;42.016;23.098;2022-09-27T07:08:09;-21892.72;;;27.81;50.40
7337;BME280;54510;42.016;23.098;2022-09-27T07:10:37;-21896.09;;;27.94;49.59
7337;BME280;54510;42.016;23.098;2022-09-27T07:13:07;-21903.16;;;28.20;49.28
7337;BME280;54510;42.016;23.098;2022-09-27T07:15:39;-21902.22;;;28.17;49.02
7337;BME280;54510;42.016;23.098;2022-09-27T07:18:06;-21922.00;;;28.91;47.98
7337;BME280;54510;42.016;23.098;2022-09-27T07:20:33;-21925.78;;;29.05;48.26
7337;BME280;54510;42.016;23.098;2022-09-27T07:23:02;-21931.84;;;29.28;48.07
7337;BME280;54510;42.016;23.098;2022-09-27T07:25:29;-21938.75;;;29.54;46.90
7337;BME280;54510;42.016;23.098;2022-09-27T07:28:00;-21935.13;;;29.40;46.91
7337;BME280;54510;42.016;23.098;2022-09-27T07:30:26;-21939.31;;;29.56;47.54
7337;BME280;54510;42.016;23.098;2022-09-27T07:32:59;-21944.56;;;29.75;45.85
7337;BME280;54510;42.016;23.098;2022-09-27T07:35:25;-21944.44;;;29.75;45.74
7337;BME280;54510;42.016;23.098;2022-09-27T07:37:52;-21940.66;;;29.61;46.35
7337;BME280;54510;42.016;23.098;2022-09-27T07:40:18;-21929.28;;;29.18;47.94
7337;BME280;54510;42.016;23.098;2022-09-27T07:42:44;-21928.22;;;29.14;47.84
7337;BME280;54510;42.016;23.098;2022-09-27T07:45:09;-21930.78;;;29.24;48.76
7337;BME280;54510;42.016;23.098;2022-09-27T07:47:38;-21939.44;;;29.56;46.93
7337;BME280;54510;42.016;23.098;2022-09-27T07:50:05;-21933.91;;;29.35;48.18
7337;BME280;54510;42.016;23.098;2022-09-27T07:52:38;-21941.88;;;29.65;48.05
7337;BME280;54510;42.016;23.098;2022-09-27T07:55:06;-21949.84;;;29.95;47.36
7337;BME280;54510;42.016;23.098;2022-09-27T07:57:31;-21946.34;;;29.82;47.98
7337;BME280;54510;42.016;23.098;2022-09-27T07:59:56;-21933.63;;;29.34;49.22
7337;BME280;54510;42.016;23.098;2022-09-27T08:02:22;-21931.19;;;29.25;48.95
7337;BME280;54510;42.016;23.098;2022-09-27T08:04:48;-21937.41;;;29.49;48.76
7337;BME280;54510;42.016;23.098;2022-09-27T08:07:14;-21948.75;;;29.91;48.19
7337;BME280;54510;42.016;23.098;2022-09-27T08:09:40;-21958.50;;;30.28;48.22
7337;BME280;54510;42.016;23.098;2022-09-27T08:12:05;-21966.88;;;30.59;46.61
7337;BME280;54510;42.016;23.098;2022-09-27T08:14:31;-21971.59;;;30.77;45.92
7337;BME280;54510;42.016;23.098;2022-09-27T08:16:57;-21970.09;;;30.71;45.76
7337;BME280;54510;42.016;23.098;2022-09-27T08:19:22;-21970.78;;;30.74;46.06
7337;BME280;54510;42.016;23.098;2022-09-27T08:21:50;-21970.50;;;30.73;45.40
7337;BME280;54510;42.016;23.098;2022-09-27T08:24:15;-21971.72;;;30.77;45.48
7337;BME280;54510;42.016;23.098;2022-09-27T08:26:41;-21977.13;;;30.97;45.28
7337;BME280;54510;42.016;23.098;2022-09-27T08:29:06;-21979.28;;;31.06;44.92
7337;BME280;54510;42.016;23.098;2022-09-27T08:31:32;-21960.91;;;30.37;45.66
7337;BME280;54510;42.016;23.098;2022-09-27T08:33:57;-21949.84;;;29.95;46.42
7337;BME280;54510;42.016;23.098;2022-09-27T08:36:23;-21934.44;;;29.37;47.04
7337;BME280;54510;42.016;23.098;2022-09-27T08:38:49;-21959.72;;;30.32;45.92
7337;BME280;54510;42.016;23.098;2022-09-27T08:41:24;-21962.81;;;30.44;44.61
7337;BME280;54510;42.016;23.098;2022-09-27T08:44:08;-21952.56;;;30.05;46.08
7337;BME280;54510;42.016;23.098;2022-09-27T08:46:58;-21946.59;;;29.83;45.98
7337;BME280;54510;42.016;23.098;2022-09-27T08:49:38;-21955.53;;;30.16;45.13
7337;BME280;54510;42.016;23.098;2022-09-27T08:52:07;-21953.63;;;30.09;45.40
7337;BME280;54510;42.016;23.098;2022-09-27T08:54:37;-21945.13;;;29.77;45.81
7337;BME280;54510;42.016;23.098;2022-09-27T08:57:08;-21949.16;;;29.93;45.25
7337;BME280;54510;42.016;23.098;2022-09-27T08:59:40;-21969.84;;;30.70;44.20
7337;BME280;54510;42.016;23.098;2022-09-27T09:02:16;-21966.47;;;30.57;44.72
7337;BME280;54510;42.016;23.098;2022-09-27T09:04:43;-21971.47;;;30.76;43.93
7337;BME280;54510;42.016;23.098;2022-09-27T09:13:19;-21960.13;;;30.34;44.39
7337;BME280;54510;42.016;23.098;2022-09-27T09:16:07;-21960.38;;;30.35;44.65
7337;BME280;54510;42.016;23.098;2022-09-27T09:24:20;-21975.78;;;30.92;43.05
7337;BME280;54510;42.016;23.098;2022-09-27T09:35:03;-21963.09;;;30.45;44.11
7337;BME280;54510;42.016;23.098;2022-09-27T09:37:38;-21958.50;;;30.28;44.92
7337;BME280;54510;42.016;23.098;2022-09-27T09:40:21;-21964.03;;;30.48;44.54
7337;BME280;54510;42.016;23.098;2022-09-27T09:45:32;-21973.34;;;30.83;43.43
7337;BME280;54510;42.016;23.098;2022-09-27T09:50:39;-21981.84;;;31.15;42.62
7337;BME280;54510;42.016;23.098;2022-09-27T09:56:09;-22007.19;;;32.10;41.66
7337;BME280;54510;42.016;23.098;2022-09-27T10:01:20;-21994.66;;;31.63;41.84
7337;BME280;54510;42.016;23.098;2022-09-27T10:03:47;-21989.25;;;31.43;41.86
7337;BME280;54510;42.016;23.098;2022-09-27T10:06:15;-22006.25;;;32.07;41.08
7337;BME280;54510;42.016;23.098;2022-09-27T10:08:41;-22019.84;;;32.58;40.39
7337;BME280;54510;42.016;23.098;2022-09-27T10:11:17;-22012.16;;;32.29;40.20
7337;BME280;54510;42.016;23.098;2022-09-27T10:13:44;-21997.75;;;31.75;40.99
7337;BME280;54510;42.016;23.098;2022-09-27T10:16:13;-21997.63;;;31.74;41.59
7337;BME280;54510;42.016;23.098;2022-09-27T10:18:40;-22011.63;;;32.27;40.25
7337;BME280;54510;42.016;23.098;2022-09-27T10:21:29;-22027.63;;;32.87;40.04
7337;BME280;54510;42.016;23.098;2022-09-27T10:26:36;-22004.75;;;32.01;40.28
7337;BME280;54510;42.016;23.098;2022-09-27T10:29:15;-22018.34;;;32.52;40.18
7337;BME280;54510;42.016;23.098;2022-09-27T10:31:43;-22017.28;;;32.48;41.92
7337;BME280;54510;42.016;23.098;2022-09-27T10:34:39;-22020.38;;;32.60;40.88
7337;BME280;54510;42.016;23.098;2022-09-27T10:39:38;-22043.91;;;33.49;38.15
7337;BME280;54510;42.016;23.098;2022-09-27T10:44:55;-22017.69;;;32.50;39.42
7337;BME280;54510;42.016;23.098;2022-09-27T10:47:22;-22015.94;;;32.43;39.05
7337;BME280;54510;42.016;23.098;2022-09-27T10:49:51;-22024.53;;;32.76;38.50
7337;BME280;54510;42.016;23.098;2022-09-27T10:52:23;-22030.31;;;32.98;38.95
7337;BME280;54510;42.016;23.098;2022-09-27T10:55:12;-22041.06;;;33.38;37.90
7337;BME280;54510;42.016;23.098;2022-09-27T10:57:48;-22031.66;;;33.03;38.28
7337;BME280;54510;42.016;23.098;2022-09-27T11:00:31;-22025.47;;;32.79;38.43
7337;BME280;54510;42.016;23.098;2022-09-27T11:03:04;-22027.63;;;32.87;38.25
7337;BME280;54510;42.016;23.098;2022-09-27T11:05:36;-22036.78;;;33.22;37.76
7337;BME280;54510;42.016;23.098;2022-09-27T11:11:20;-22048.47;;;33.66;36.40
7337;BME280;54510;42.016;23.098;2022-09-27T11:14:09;-22030.88;;;33.00;36.81
7337;BME280;54510;42.016;23.098;2022-09-27T11:16:47;-22020.22;;;32.60;37.88
7337;BME280;54510;42.016;23.098;2022-09-27T11:30:12;-22006.25;;;32.07;40.13
7337;BME280;54510;42.016;23.098;2022-09-27T11:35:44;-21997.75;;;31.75;41.19
7337;BME280;54510;42.016;23.098;2022-09-27T11:46:27;-21981.16;;;31.13;42.50
7337;BME280;54510;42.016;23.098;2022-09-27T11:57:32;-21986.03;;;31.31;42.85
7337;BME280;54510;42.016;23.098;2022-09-27T12:06:00;-21995.72;;;31.67;42.56
7337;BME280;54510;42.016;23.098;2022-09-27T12:08:31;-21988.84;;;31.42;42.68
7337;BME280;54510;42.016;23.098;2022-09-27T12:11:30;-21986.44;;;31.32;42.16
7337;BME280;54510;42.016;23.098;2022-09-27T12:14:22;-21984.81;;;31.26;42.49
7337;BME280;54510;42.016;23.098;2022-09-27T12:16:51;-21996.00;;;31.68;42.04
7337;BME280;54510;42.016;23.098;2022-09-27T12:19:39;-21994.25;;;31.62;42.54
7337;BME280;54510;42.016;23.098;2022-09-27T12:22:11;-22015.66;;;32.42;40.95
7337;BME280;54510;42.016;23.098;2022-09-27T12:24:38;-22031.25;;;33.01;40.44
7337;BME280;54510;42.016;23.098;2022-09-27T12:27:12;-22012.44;;;32.30;40.89
7337;BME280;54510;42.016;23.098;2022-09-27T12:29:41;-22023.75;;;32.73;40.22
7337;BME280;54510;42.016;23.098;2022-09-27T12:32:23;-22029.53;;;32.94;40.34
7337;BME280;54510;42.016;23.098;2022-09-27T12:40:13;-22032.47;;;33.06;39.11
7337;BME280;54510;42.016;23.098;2022-09-27T12:42:56;-22039.34;;;33.31;38.27
7337;BME280;54510;42.016;23.098;2022-09-27T12:51:02;-22039.34;;;33.31;38.38
7337;BME280;54510;42.016;23.098;2022-09-27T13:07:49;-22010.13;;;32.22;41.23
7337;BME280;54510;42.016;23.098;2022-09-27T13:10:39;-22026.81;;;32.84;40.68
7337;BME280;54510;42.016;23.098;2022-09-27T13:13:16;-22011.50;;;32.27;41.08
7337;BME280;54510;42.016;23.098;2022-09-27T13:15:43;-22025.88;;;32.81;40.06
7337;BME280;54510;42.016;23.098;2022-09-27T13:20:54;-21984.94;;;31.27;43.15
7337;BME280;54510;42.016;23.098;2022-09-27T13:25:52;-21978.59;;;31.03;43.86
7337;BME280;54510;42.016;23.098;2022-09-27T13:30:54;-21996.28;;;31.69;42.53
7337;BME280;54510;42.016;23.098;2022-09-27T13:33:31;-22002.72;;;31.94;41.48
7337;BME280;54510;42.016;23.098;2022-09-27T13:36:28;-21998.97;;;31.80;42.23
7337;BME280;54510;42.016;23.098;2022-09-27T13:41:27;-21982.38;;;31.17;42.54
7337;BME280;54510;42.016;23.098;2022-09-27T13:47:15;-21994.38;;;31.62;41.56
7337;BME280;54510;42.016;23.098;2022-09-27T13:49:50;-21996.41;;;31.70;41.35
7337;BME280;54510;42.016;23.098;2022-09-27T13:52:24;-22019.84;;;32.58;40.12
7337;BME280;54510;42.016;23.098;2022-09-27T13:54:56;-21990.88;;;31.49;41.51
7337;BME280;54510;42.016;23.098;2022-09-27T14:00:11;-22023.59;;;32.72;40.51
7337;BME280;54510;42.016;23.098;2022-09-27T14:05:17;-22012.16;;;32.29;40.00
7337;BME280;54510;42.016;23.098;2022-09-27T14:07:45;-22012.69;;;32.31;40.81
7337;BME280;54510;42.016;23.098;2022-09-27T14:10:17;-21995.19;;;31.65;41.82
7337;BME280;54510;42.016;23.098;2022-09-27T14:12:44;-21985.34;;;31.28;42.11
7337;BME280;54510;42.016;23.098;2022-09-27T14:15:26;-21983.31;;;31.21;42.69
7337;BME280;54510;42.016;23.098;2022-09-27T14:17:52;-21979.28;;;31.06;43.23
7337;BME280;54510;42.016;23.098;2022-09-27T14:20:38;-21963.09;;;30.45;44.21
7337;BME280;54510;42.016;23.098;2022-09-27T14:23:21;-21973.34;;;30.83;43.62
7337;BME280;54510;42.016;23.098;2022-09-27T14:25:49;-21973.06;;;30.82;43.69
7337;BME280;54510;42.016;23.098;2022-09-27T14:28:19;-21984.41;;;31.25;42.59
7337;BME280;54510;42.016;23.098;2022-09-27T14:30:45;-21987.25;;;31.35;42.58
7337;BME280;54510;42.016;23.098;2022-09-27T14:33:31;-22011.34;;;32.26;41.17
7337;BME280;54510;42.016;23.098;2022-09-27T14:35:59;-21995.59;;;31.67;42.44
7337;BME280;54510;42.016;23.098;2022-09-27T14:38:44;-21996.13;;;31.69;42.47
7337;BME280;54510;42.016;23.098;2022-09-27T14:41:09;-22011.75;;;32.28;41.28
7337;BME280;54510;42.016;23.098;2022-09-27T14:43:41;-22014.03;;;32.36;40.72
7337;BME280;54510;42.016;23.098;2022-09-27T14:46:24;-22034.09;;;33.12;39.93
7337;BME280;54510;42.016;23.098;2022-09-27T14:48:51;-22004.50;;;32.00;41.60
7337;BME280;54510;42.016;23.098;2022-09-27T14:51:19;-22001.66;;;31.90;41.91
7337;BME280;54510;42.016;23.098;2022-09-27T14:53:51;-21998.44;;;31.77;42.44
7337;BME280;54510;42.016;23.098;2022-09-27T14:56:33;-21998.16;;;31.76;42.69
7337;BME280;54510;42.016;23.098;2022-09-27T14:59:05;-22006.50;;;32.08;41.77
7337;BME280;54510;42.016;23.098;2022-09-27T15:01:33;-21991.69;;;31.52;43.15
7337;BME280;54510;42.016;23.098;2022-09-27T15:04:10;-22015.41;;;32.41;41.19
7337;BME280;54510;42.016;23.098;2022-09-27T15:06:38;-22018.63;;;32.53;40.97
7337;BME280;54510;42.016;23.098;2022-09-27T15:09:05;-22009.19;;;32.18;41.90
7337;BME280;54510;42.016;23.098;2022-09-27T15:11:31;-22010.00;;;32.21;41.33
7337;BME280;54510;42.016;23.098;2022-09-27T15:13:59;-21997.09;;;31.72;42.59
7337;BME280;54510;42.016;23.098;2022-09-27T15:16:26;-21992.63;;;31.56;43.03
7337;BME280;54510;42.016;23.098;2022-09-27T15:19:04;-21979.41;;;31.06;43.81
7337;BME280;54510;42.016;23.098;2022-09-27T15:21:36;-21984.53;;;31.25;43.32
7337;BME280;54510;42.016;23.098;2022-09-27T15:24:02;-21984.00;;;31.23;43.73
7337;BME280;54510;42.016;23.098;2022-09-27T15:26:35;-21966.72;;;30.58;45.28
7337;BME280;54510;42.016;23.098;2022-09-27T15:29:02;-21982.53;;;31.18;44.01
7337;BME280;54510;42.016;23.098;2022-09-27T15:31:29;-21963.75;;;30.47;45.41
7337;BME280;54510;42.016;23.098;2022-09-27T15:33:55;-21966.47;;;30.57;45.15
7337;BME280;54510;42.016;23.098;2022-09-27T15:36:50;-21964.97;;;30.52;45.10
7337;BME280;54510;42.016;23.098;2022-09-27T15:39:18;-21957.53;;;30.24;46.01
7337;BME280;54510;42.016;23.098;2022-09-27T15:52:47;-21954.72;;;30.13;45.17
7337;BME280;54510;42.016;23.098;2022-09-27T15:55:20;-21966.59;;;30.58;44.33
7337;BME280;54510;42.016;23.098;2022-09-27T15:57:51;-21954.16;;;30.11;45.00
7337;BME280;54510;42.016;23.098;2022-09-27T16:00:18;-21957.81;;;30.25;44.04
7337;BME280;54510;42.016;23.098;2022-09-27T16:02:45;-21968.47;;;30.65;43.41
7337;BME280;54510;42.016;23.098;2022-09-27T16:05:11;-21955.25;;;30.15;44.14
7337;BME280;54510;42.016;23.098;2022-09-27T16:07:37;-21954.84;;;30.14;44.22
7337;BME280;54510;42.016;23.098;2022-09-27T16:10:13;-21970.09;;;30.71;42.89